Portada
METAR-TAF:

METAR-TAF

Aeroports :

Balikpapan, Indonèsia

latitud: 01-16-06S, longitud: 116-53-40E, altitud: 4 m

Observació

L'informe es va fer fa 21 minuts, a les 03:30 UTC
Vent 3 kt del Sud/Sud-Oest
Temperatura 30°C
Humitat 79%
Pressió 1009 hPa
Visibilitat 10 km o més
Escasses núvols a una alçada de 2000 ft

METAR: WALL 300330Z 21003KT 9999 FEW020 30/26 Q1009

Hora: 10:51 (03:51 UTC)

Pronòstic

L'informe es va fer fa 4 hores i 51 minuts, a les 23:00 UTC
Pronòstic vàlid del 30 a les 00 UTC al 01 a les 06 UTC
Vent 3 kt del Sud/Sud-Oest
Visibilitat 10 km o més
Escasses núvols a una alçada de 2000 ft
Temporalment
l' 30 a les 00 UTC al 30 a les 03 UTC
Visibilitat: 5000 m
Escasses núvols a una alçada de 1800 ft, Cumulonimbus.
Núvols disperses a una alçada de 1700 ft
pluja
Evolucionant progressivament
l' 30 a les 06 UTC al 30 a les 09 UTC
Vent 5 kt del Est

TAF: WALL 292300Z 3000/0106 21003KT 9999 FEW020 TEMPO 3000/3003 5000 RA FEW018CB SCT017 BECMG 3006/3009 09005KT

Observacions i pronòstics meteorològics de més de 4000 aeroports (METAR i TAF).

Les estacions disponibles són els punts grocs i vermells al mapa.

Posi el ratolí al punt desitjat per veure el nom de l'estació.

Feu clic per veure les observacions i els pronòstics meteorològics.

Per canviar el mapa: feu clic els botons verds amb una creu de color negre per apropar; al botó verd amb un guió per allunyar la imatge; o en les fletxes verdes per a mapes adjacents.


METAR-TAF: